Time;durP1;ratioP1;P1;durP2;ratioP2;P2;SDS_P1;SDS_P2;PMS_P1;PMS_P2;Temp;Humidity;BMP_temperature;BMP_pressure;BME280_temperature;BME280_humidity;BME280_pressure;Samples;Min_cycle;Max_cycle;Signal;HPM_P1;HPM_P2
2022/04/16 00:01:36;;;;;;;5.72;1.35;;;;;;;4.95;72.63;101819.92;1879528;76;21425;-58
2022/04/16 00:04:07;;;;;;;1.40;1.17;;;;;;;4.89;72.75;101819.92;1879555;76;21041;-58
2022/04/16 00:06:35;;;;;;;10.93;2.08;;;;;;;4.90;72.83;101820.34;1879540;76;21065;-58
2022/04/16 00:09:05;;;;;;;8.68;1.25;;;;;;;4.89;72.92;101813.40;1879547;76;21143;-59
2022/04/16 00:11:34;;;;;;;2.37;2.08;;;;;;;4.90;72.87;101817.73;1879634;74;21475;-60
2022/04/16 00:14:03;;;;;;;1.80;1.55;;;;;;;4.86;72.85;101812.08;1879571;76;21495;-60
2022/04/16 00:16:33;;;;;;;1.17;1.10;;;;;;;4.84;72.87;101819.03;1879655;74;21053;-60
2022/04/16 00:19:01;;;;;;;6.10;1.05;;;;;;;4.81;72.88;101817.71;1879645;76;21052;-60
2022/04/16 00:21:30;;;;;;;1.57;1.32;;;;;;;4.79;72.89;101824.23;1879603;74;21084;-60
2022/04/16 00:24:00;;;;;;;1.67;1.55;;;;;;;4.75;73.04;101827.70;1879661;76;21040;-60
2022/04/16 00:26:29;;;;;;;5.17;2.05;;;;;;;4.72;72.99;101830.33;1879519;75;21545;-61
2022/04/16 00:28:59;;;;;;;3.37;1.65;;;;;;;4.67;73.10;101828.55;1879526;74;21179;-60
2022/04/16 00:31:28;;;;;;;12.18;1.42;;;;;;;4.63;73.18;101820.73;1879615;76;21499;-59
2022/04/16 00:33:57;;;;;;;2.22;2.10;;;;;;;4.60;73.27;101828.53;1879655;76;21518;-60
2022/04/16 00:36:26;;;;;;;4.03;1.40;;;;;;;4.55;73.33;101826.34;1879738;75;21056;-60
2022/04/16 00:38:54;;;;;;;5.78;2.05;;;;;;;4.52;73.43;101819.83;1879560;74;21131;-60
2022/04/16 00:41:23;;;;;;;1.90;1.65;;;;;;;4.53;73.33;101822.86;1875775;74;21046;-61
2022/04/16 00:43:52;;;;;;;2.27;1.62;;;;;;;4.52;73.45;101821.55;1875120;75;21019;-60
2022/04/16 00:46:21;;;;;;;8.53;2.10;;;;;;;4.48;73.53;101818.05;1875027;75;21563;-61
2022/04/16 00:48:50;;;;;;;6.70;1.60;;;;;;;4.40;73.73;101821.94;1885540;74;21166;-64
2022/04/16 00:51:18;;;;;;;2.47;2.35;;;;;;;4.36;73.77;101825.85;1886855;76;21031;-62
2022/04/16 00:53:47;;;;;;;4.30;3.02;;;;;;;4.33;73.73;101819.31;1883734;76;21041;-62
2022/04/16 00:56:16;;;;;;;3.20;2.45;;;;;;;4.32;73.73;101820.19;1879841;76;21028;-59
2022/04/16 00:58:45;;;;;;;4.05;2.17;;;;;;;4.29;73.71;101815.81;1884749;74;21056;-61
2022/04/16 01:01:14;;;;;;;4.28;2.35;;;;;;;4.25;73.80;101819.28;1923963;74;21088;-62
2022/04/16 01:03:43;;;;;;;2.92;1.92;;;;;;;4.22;73.89;101820.16;1923752;74;21047;-63
2022/04/16 01:06:19;;;;;;;1.70;1.17;;;;;;;4.20;73.81;101828.38;1894461;74;21107;-62
2022/04/16 01:08:45;;;;;;;20.60;2.85;;;;;;;4.19;73.81;101829.25;1866910;76;21046;-61
2022/04/16 01:11:15;;;;;;;6.50;2.55;;;;;;;4.18;73.80;101821.42;1867444;77;21513;-62
2022/04/16 01:13:49;;;;;;;8.55;2.65;;;;;;;4.15;73.93;101816.18;1867549;77;21027;-56
2022/04/16 01:16:15;;;;;;;7.85;2.08;;;;;;;4.13;73.84;101814.90;1866931;76;21044;-61
2022/04/16 01:18:50;;;;;;;10.70;2.15;;;;;;;4.12;73.68;101813.14;1852507;76;21043;-61
2022/04/16 01:21:18;;;;;;;2.55;1.70;;;;;;;4.10;73.66;101805.75;1848947;77;21059;-64
2022/04/16 01:23:47;;;;;;;6.10;2.52;;;;;;;4.08;73.68;101810.09;1848987;77;21055;-64
2022/04/16 01:26:16;;;;;;;7.08;3.05;;;;;;;4.06;73.72;101813.13;1880632;76;21509;-65
2022/04/16 01:28:44;;;;;;;14.33;2.17;;;;;;;4.06;73.80;101815.73;1882859;76;21050;-66
2022/04/16 01:31:13;;;;;;;8.15;1.92;;;;;;;4.06;73.74;101811.82;1870570;76;21047;-62
2022/04/16 01:33:42;;;;;;;2.25;2.08;;;;;;;4.04;73.71;101812.25;1852712;77;21618;-62
2022/04/16 01:36:12;;;;;;;2.98;1.67;;;;;;;4.02;73.69;101810.03;1862773;76;21048;-62
2022/04/16 01:38:40;;;;;;;2.87;2.02;;;;;;;4.02;73.61;101813.94;1873315;76;21097;-62
2022/04/16 01:41:09;;;;;;;6.80;2.45;;;;;;;4.01;73.55;101817.43;1873187;76;21029;-62
2022/04/16 01:43:37;;;;;;;3.35;2.58;;;;;;;3.99;73.57;101808.73;1879377;76;21118;-60
2022/04/16 01:46:06;;;;;;;2.58;1.90;;;;;;;3.96;73.68;101804.80;1880310;76;21121;-61
2022/04/16 01:48:35;;;;;;;7.30;1.45;;;;;;;3.91;73.81;101806.50;1880292;76;21027;-61
2022/04/16 01:51:05;;;;;;;2.65;2.37;;;;;;;3.89;73.77;101809.53;1880341;76;21063;-60
2022/04/16 01:53:33;;;;;;;14.38;2.22;;;;;;;3.87;73.81;101804.31;1880326;76;21051;-63
2022/04/16 01:56:02;;;;;;;7.92;3.62;;;;;;;3.85;73.85;101802.13;1880140;76;21051;-63
2022/04/16 01:58:31;;;;;;;3.27;1.27;;;;;;;3.85;73.97;101809.95;1880234;76;21118;-63
2022/04/16 02:01:00;;;;;;;1.05;1.02;;;;;;;3.84;73.87;101807.78;1878529;76;21202;-63
2022/04/16 02:03:30;;;;;;;2.55;2.22;;;;;;;3.84;73.80;101812.99;1862537;76;21038;-63
2022/04/16 02:05:59;;;;;;;3.47;2.35;;;;;;;3.83;73.74;101806.47;1884253;75;21528;-63
2022/04/16 02:08:28;;;;;;;4.60;2.22;;;;;;;3.81;73.70;101811.66;1862436;75;21496;-64
2022/04/16 02:10:56;;;;;;;1.75;1.62;;;;;;;3.79;73.75;101817.30;1846447;78;21576;-62
2022/04/16 02:13:25;;;;;;;3.85;1.57;;;;;;;3.72;73.83;101807.70;1846246;78;21066;-68
2022/04/16 02:15:54;;;;;;;3.20;2.42;;;;;;;3.67;73.99;101800.27;1849352;76;21070;-62
2022/04/16 02:18:28;;;;;;;8.63;2.95;;;;;;;3.63;74.04;101801.12;1884504;76;21453;-59
2022/04/16 02:20:53;;;;;;;4.28;2.55;;;;;;;3.59;74.16;101805.88;1883407;76;21078;-56
2022/04/16 02:23:22;;;;;;;2.83;2.37;;;;;;;3.55;74.45;101808.03;1884299;76;21138;-60
2022/04/16 02:25:53;;;;;;;6.50;1.67;;;;;;;3.54;74.72;101811.48;1873583;76;21035;-62
2022/04/16 02:28:21;;;;;;;1.92;1.80;;;;;;;3.55;74.51;101812.80;1867546;76;21231;-65
2022/04/16 02:30:50;;;;;;;2.27;1.98;;;;;;;3.55;74.32;101821.05;1874818;76;21556;-65
2022/04/16 02:33:18;;;;;;;2.67;2.02;;;;;;;3.53;74.29;101818.87;1854221;76;21011;-67
2022/04/16 02:35:48;;;;;;;4.50;2.30;;;;;;;3.54;74.23;101829.70;1874846;75;21513;-65
2022/04/16 02:38:17;;;;;;;1.75;1.62;;;;;;;3.50;74.32;101824.91;1877246;76;21161;-64
2022/04/16 02:40:47;;;;;;;5.08;3.10;;;;;;;3.46;74.35;101826.61;1879299;76;21038;-65
2022/04/16 02:43:15;;;;;;;3.67;2.30;;;;;;;3.38;75.08;101829.59;1882768;76;21043;-66
2022/04/16 02:48:30;;;;;;;4.47;2.95;;;;;;;3.33;75.78;101833.89;1847725;76;21144;-65
2022/04/16 02:50:59;;;;;;;1.77;1.67;;;;;;;3.29;75.86;101835.59;1846287;78;21066;-64
2022/04/16 02:53:31;;;;;;;3.30;1.30;;;;;;;3.28;75.99;101833.87;1846363;78;21132;-64
2022/04/16 02:55:58;;;;;;;1.60;0.90;;;;;;;3.33;75.66;101846.05;1874146;76;21043;-64
2022/04/16 02:58:27;;;;;;;2.17;2.08;;;;;;;3.36;75.40;101854.75;1884506;75;21059;-63
2022/04/16 03:00:56;;;;;;;1.77;1.37;;;;;;;3.42;75.28;101844.38;1852358;76;21467;-62
2022/04/16 03:03:25;;;;;;;2.10;2.00;;;;;;;3.53;75.25;101852.28;1872557;77;21051;-61
2022/04/16 03:05:54;;;;;;;3.17;2.87;;;;;;;3.67;75.41;101853.67;1861277;77;21468;-59
2022/04/16 03:08:24;;;;;;;4.97;2.52;;;;;;;3.83;75.50;101853.36;1846307;78;21481;-59
2022/04/16 03:10:54;;;;;;;7.62;1.82;;;;;;;4.03;75.59;101855.66;1846124;78;21493;-60
2022/04/16 03:13:23;;;;;;;3.50;1.57;;;;;;;4.23;75.58;101853.16;1846229;78;21027;-59
2022/04/16 03:18:38;;;;;;;5.45;3.72;;;;;;;4.66;75.56;101845.08;1846146;78;21142;-59
2022/04/16 03:21:07;;;;;;;3.98;1.98;;;;;;;4.84;75.71;101843.83;1846295;78;21039;-58
2022/04/16 03:23:36;;;;;;;1.87;1.42;;;;;;;5.02;75.68;101844.31;1842659;77;21019;-59
2022/04/16 03:26:04;;;;;;;6.30;3.67;;;;;;;5.23;75.63;101842.14;1815715;79;21485;-59
2022/04/16 03:28:33;;;;;;;4.30;2.22;;;;;;;5.45;75.63;101839.55;1815750;78;21075;-59
2022/04/16 03:31:02;;;;;;;5.97;3.60;;;;;;;5.62;75.66;101843.01;1815628;78;21134;-59
2022/04/16 03:33:31;;;;;;;7.50;2.80;;;;;;;5.75;75.66;101853.87;1815617;79;21074;-59
2022/04/16 03:36:00;;;;;;;3.75;1.52;;;;;;;5.86;75.55;101843.85;1841523;76;21458;-59
2022/04/16 03:38:29;;;;;;;4.55;2.52;;;;;;;6.01;75.38;101842.53;1877852;76;21047;-58
2022/04/16 03:40:57;;;;;;;12.53;3.15;;;;;;;6.17;75.18;101849.47;1877746;76;21020;-58
2022/04/16 03:43:29;;;;;;;3.98;1.67;;;;;;;6.33;74.99;101840.28;1848079;76;21165;-59
2022/04/16 03:45:58;;;;;;;3.60;2.45;;;;;;;6.48;74.74;101841.52;1841483;77;21059;-59
2022/04/16 03:48:27;;;;;;;4.03;2.60;;;;;;;6.71;74.37;101840.52;1841477;77;21059;-62
2022/04/16 03:50:55;;;;;;;11.53;3.55;;;;;;;6.95;74.14;101836.48;1841438;77;21122;-60
2022/04/16 03:53:24;;;;;;;4.70;1.82;;;;;;;7.25;73.91;101841.06;1841481;78;21071;-58
2022/04/16 04:01:09;;;;;;;5.20;2.30;;;;;;;8.01;72.97;101835.99;1841312;78;21163;-60
2022/04/16 04:03:38;;;;;;;2.10;1.55;;;;;;;8.23;72.85;101839.24;1819659;77;21177;-59
2022/04/16 04:06:07;;;;;;;7.25;2.92;;;;;;;8.47;73.07;101839.42;1818867;79;21126;-60
2022/04/16 04:08:36;;;;;;;3.05;2.02;;;;;;;8.73;72.90;101833.41;1818747;78;21510;-59
2022/04/16 04:11:05;;;;;;;4.03;1.80;;;;;;;8.94;72.48;101828.28;1818874;79;21070;-60
2022/04/16 04:13:34;;;;;;;6.67;2.55;;;;;;;9.20;72.29;101830.08;1818889;78;21497;-60
2022/04/16 04:16:03;;;;;;;7.40;2.12;;;;;;;9.46;72.04;101823.50;1818957;79;21189;-60
2022/04/16 04:18:31;;;;;;;5.53;2.52;;;;;;;9.73;71.80;101822.61;1818873;78;21137;-60
2022/04/16 04:21:00;;;;;;;16.02;2.40;;;;;;;9.96;71.55;101821.73;1818910;79;21067;-60
2022/04/16 04:23:29;;;;;;;8.48;2.80;;;;;;;10.10;71.13;101820.14;1818975;79;21447;-60
2022/04/16 04:25:58;;;;;;;5.35;2.40;;;;;;;10.35;71.06;101819.23;1819014;78;21075;-60
2022/04/16 04:28:27;;;;;;;5.55;2.12;;;;;;;10.64;70.83;101824.31;1818958;79;21263;-59
2022/04/16 04:30:55;;;;;;;13.72;2.30;;;;;;;10.85;70.65;101813.76;1818874;78;21121;-59
2022/04/16 04:33:24;;;;;;;3.40;2.17;;;;;;;11.08;70.31;101814.52;1818992;78;21154;-59
2022/04/16 04:35:52;;;;;;;3.60;2.05;;;;;;;11.32;69.94;101805.59;1818865;79;21176;-59
2022/04/16 04:38:21;;;;;;;2.33;1.82;;;;;;;11.66;69.80;101801.65;1818896;78;21141;-60
2022/04/16 04:40:50;;;;;;;8.35;2.85;;;;;;;12.03;69.87;101803.78;1818849;78;21075;-59
2022/04/16 04:43:18;;;;;;;11.80;2.37;;;;;;;12.49;69.64;101798.47;1839539;78;21047;-60
2022/04/16 04:45:48;;;;;;;13.43;3.37;;;;;;;12.87;69.50;101795.97;1845567;78;21091;-59
2022/04/16 04:48:17;;;;;;;12.20;3.35;;;;;;;13.27;69.34;101792.47;1845645;78;21161;-59
2022/04/16 04:50:46;;;;;;;7.12;2.95;;;;;;;13.60;69.07;101791.80;1845663;78;21055;-60
2022/04/16 04:53:14;;;;;;;5.70;2.60;;;;;;;13.94;69.13;101785.30;1845631;78;21063;-59
2022/04/16 04:55:43;;;;;;;32.17;3.60;;;;;;;14.22;68.90;101786.48;1845737;78;21184;-59
2022/04/16 04:58:12;;;;;;;11.55;3.22;;;;;;;14.45;68.17;101778.97;1845657;78;21015;-59
2022/04/16 05:00:40;;;;;;;17.67;3.72;;;;;;;14.61;67.54;101773.97;1845649;78;21055;-60
2022/04/16 05:03:09;;;;;;;8.35;3.12;;;;;;;14.78;67.22;101779.06;1845321;77;21095;-59
2022/04/16 05:05:38;;;;;;;7.72;2.65;;;;;;;14.88;66.65;101776.43;1844972;78;21149;-59
2022/04/16 05:08:06;;;;;;;9.83;3.35;;;;;;;14.95;66.54;101765.97;1845056;78;21126;-59
2022/04/16 05:10:35;;;;;;;11.00;3.00;;;;;;;15.23;66.21;101766.15;1845041;78;21071;-59
2022/04/16 05:13:03;;;;;;;11.90;3.02;;;;;;;15.44;65.95;101759.08;1845039;78;21107;-59
2022/04/16 05:15:32;;;;;;;7.80;2.98;;;;;;;15.69;65.25;101763.31;1845092;78;21059;-59
2022/04/16 05:18:01;;;;;;;12.30;3.10;;;;;;;15.96;64.92;101752.81;1845022;78;21071;-59
2022/04/16 05:20:30;;;;;;;24.23;2.65;;;;;;;16.12;64.35;101755.64;1845195;78;21157;-58
2022/04/16 05:22:58;;;;;;;10.08;3.60;;;;;;;16.36;63.39;101748.78;1845077;78;21063;-58
2022/04/16 05:25:27;;;;;;;14.70;5.92;;;;;;;16.41;62.97;101742.76;1845037;78;21505;-59
2022/04/16 05:27:56;;;;;;;16.52;4.08;;;;;;;16.50;62.64;101742.32;1845062;78;21067;-59
2022/04/16 05:30:34;;;;;;;4.28;2.45;;;;;;;16.67;62.45;101745.97;1845038;78;21231;-58
2022/04/16 05:33:01;;;;;;;3.72;2.02;;;;;;;16.78;62.07;101746.30;1842638;78;21060;-59
2022/04/16 05:35:25;;;;;;;3.00;1.50;;;;;;;16.92;62.08;101750.51;1845015;78;21141;-59
2022/04/16 05:37:53;;;;;;;1.92;1.02;;;;;;;17.16;61.88;101735.58;1845035;78;21106;-60
2022/04/16 05:40:22;;;;;;;4.60;1.32;;;;;;;17.35;61.34;101731.50;1845061;78;21055;-60
2022/04/16 05:42:51;;;;;;;3.35;1.60;;;;;;;17.50;60.82;101728.50;1839355;78;21361;-59
2022/04/16 05:45:19;;;;;;;2.42;1.22;;;;;;;17.78;60.38;101724.38;1834890;78;21107;-60
2022/04/16 05:47:48;;;;;;;2.47;1.07;;;;;;;18.00;59.79;101715.66;1835071;78;21051;-58
2022/04/16 05:50:16;;;;;;;3.22;1.15;;;;;;;18.16;59.08;101710.33;1835057;78;21149;-61
2022/04/16 05:52:45;;;;;;;4.05;1.50;;;;;;;18.43;59.00;101711.92;1835192;78;21149;-59
2022/04/16 05:55:14;;;;;;;5.00;1.20;;;;;;;18.42;57.97;101707.52;1835077;78;21118;-59
2022/04/16 05:57:43;;;;;;;1.12;1.00;;;;;;;18.37;56.79;101708.28;1835068;78;21149;-60
2022/04/16 06:00:13;;;;;;;6.22;1.50;;;;;;;18.68;56.93;101694.50;1835242;78;21059;-59
2022/04/16 06:02:42;;;;;;;1.92;0.95;;;;;;;18.94;56.40;101694.82;1834998;78;21607;-60
2022/04/16 06:05:11;;;;;;;2.87;1.00;;;;;;;18.90;55.11;101702.14;1835061;77;21549;-61
2022/04/16 06:07:40;;;;;;;2.98;1.20;;;;;;;19.09;55.46;101703.27;1835163;78;21088;-60
2022/04/16 06:10:10;;;;;;;5.45;1.70;;;;;;;19.18;54.69;101694.71;1834977;78;21056;-62
2022/04/16 06:12:41;;;;;;;4.42;1.77;;;;;;;19.37;53.79;101696.27;1835174;78;21043;-60
2022/04/16 06:15:10;;;;;;;7.75;2.67;;;;;;;19.35;53.31;101694.14;1835035;78;21153;-60
2022/04/16 06:17:39;;;;;;;5.58;2.35;;;;;;;19.22;52.01;101688.23;1835103;78;21510;-60
2022/04/16 06:20:08;;;;;;;7.05;2.22;;;;;;;19.22;52.15;101691.38;1835151;78;21076;-59
2022/04/16 06:22:37;;;;;;;1.90;1.10;;;;;;;19.39;51.88;101689.02;1835100;77;21116;-60
2022/04/16 06:25:13;;;;;;;5.30;1.57;;;;;;;19.51;50.60;101682.90;1835002;78;21091;-60
2022/04/16 06:27:40;;;;;;;5.58;2.45;;;;;;;19.56;51.02;101687.97;1835056;78;21064;-58
2022/04/16 06:30:11;;;;;;;7.00;2.33;;;;;;;19.67;50.56;101686.34;1835046;78;21075;-59
2022/04/16 06:32:39;;;;;;;8.10;2.98;;;;;;;19.99;50.64;101678.16;1835165;78;21072;-59
2022/04/16 06:35:08;;;;;;;8.03;2.98;;;;;;;20.36;50.25;101677.56;1834943;77;21054;-59
2022/04/16 06:37:37;;;;;;;5.47;2.30;;;;;;;20.58;49.95;101679.69;1835004;78;21118;-59
2022/04/16 06:40:07;;;;;;;4.92;2.42;;;;;;;20.61;49.18;101668.82;1835134;78;21051;-58
2022/04/16 06:42:37;;;;;;;4.87;2.77;;;;;;;20.48;48.14;101670.57;1839830;78;21032;-59
2022/04/16 06:45:08;;;;;;;4.80;1.62;;;;;;;20.52;48.28;101668.06;1844960;78;21070;-60
2022/04/16 06:47:37;;;;;;;2.27;1.05;;;;;;;20.62;47.94;101664.71;1844545;78;21048;-62
2022/04/16 06:50:06;;;;;;;7.47;1.92;;;;;;;20.71;47.42;101656.55;1844972;78;21126;-60
2022/04/16 06:52:35;;;;;;;2.52;1.50;;;;;;;20.75;46.59;101647.80;1845139;78;21121;-61
2022/04/16 06:55:05;;;;;;;2.12;0.90;;;;;;;20.79;47.08;101646.66;1845117;78;21129;-60
2022/04/16 06:57:34;;;;;;;3.40;1.52;;;;;;;20.97;47.19;101652.55;1845050;78;21138;-59
2022/04/16 07:00:07;;;;;;;3.50;1.32;;;;;;;21.12;46.63;101652.02;1845054;78;21032;-59
2022/04/16 07:02:36;;;;;;;4.92;1.72;;;;;;;21.31;46.42;101658.27;1845216;78;21055;-59
2022/04/16 07:05:07;;;;;;;2.55;1.30;;;;;;;21.33;46.10;101653.66;1845132;77;21530;-60
2022/04/16 07:07:35;;;;;;;3.67;1.12;;;;;;;21.53;46.10;101649.12;1845102;78;21039;-60
2022/04/16 07:10:05;;;;;;;3.72;1.70;;;;;;;21.90;46.15;101657.20;1845032;78;21078;-60
2022/04/16 07:12:34;;;;;;;8.25;1.95;;;;;;;21.92;45.54;101648.56;1845084;78;21075;-62
2022/04/16 07:15:03;;;;;;;3.62;1.42;;;;;;;22.08;45.39;101641.61;1844990;78;21145;-60
2022/04/16 07:17:32;;;;;;;2.35;1.35;;;;;;;22.32;45.55;101629.57;1845020;78;21137;-60
2022/04/16 07:20:01;;;;;;;1.72;1.20;;;;;;;22.83;45.11;101631.58;1845106;78;21071;-60
2022/04/16 07:22:29;;;;;;;3.05;1.35;;;;;;;23.17;44.35;101627.17;1844998;78;21134;-60
2022/04/16 07:24:58;;;;;;;4.05;1.30;;;;;;;23.06;42.80;101623.98;1844981;78;21059;-60
2022/04/16 07:27:27;;;;;;;1.82;1.02;;;;;;;22.98;42.21;101623.70;1844886;78;21047;-59
2022/04/16 07:29:58;;;;;;;3.35;1.12;;;;;;;22.93;42.16;101620.02;1844994;78;21549;-60
2022/04/16 07:32:28;;;;;;;1.47;0.88;;;;;;;23.26;42.02;101619.73;1844978;78;21217;-60
2022/04/16 07:34:57;;;;;;;2.67;1.57;;;;;;;23.68;41.70;101619.97;1844229;78;21023;-59
2022/04/16 07:37:25;;;;;;;3.08;1.10;;;;;;;23.88;41.01;101608.97;1844982;78;21031;-59
2022/04/16 07:39:54;;;;;;;3.37;1.32;;;;;;;23.92;40.78;101614.08;1844900;78;21141;-59
2022/04/16 07:42:27;;;;;;;1.12;0.60;;;;;;;24.10;40.56;101604.49;1841199;78;21126;-60
2022/04/16 07:44:56;;;;;;;1.12;1.00;;;;;;;24.34;40.72;101602.94;1834940;78;21505;-59
2022/04/16 07:47:25;;;;;;;1.98;1.00;;;;;;;24.48;40.11;101605.33;1835002;78;21157;-58
2022/04/16 07:49:54;;;;;;;1.60;0.72;;;;;;;24.74;39.86;101598.75;1835115;78;21032;-59
2022/04/16 07:52:28;;;;;;;2.70;0.90;;;;;;;25.13;39.97;101586.84;1834894;78;21027;-59
2022/04/16 07:54:57;;;;;;;4.05;1.02;;;;;;;25.29;39.39;101591.79;1834991;78;21059;-60
2022/04/16 07:57:25;;;;;;;1.42;0.80;;;;;;;25.35;38.77;101589.37;1835070;77;21176;-60
2022/04/16 07:59:57;;;;;;;2.77;0.93;;;;;;;25.55;38.54;101594.86;1834953;78;21079;-60
2022/04/16 08:02:28;;;;;;;3.12;0.70;;;;;;;25.78;38.27;101592.30;1834950;78;21118;-60
2022/04/16 08:04:58;;;;;;;3.98;1.00;;;;;;;25.73;38.11;101583.77;1837488;76;21094;-61
2022/04/16 08:07:27;;;;;;;4.33;0.90;;;;;;;26.05;38.09;101581.36;1844086;76;21087;-59
2022/04/16 08:09:55;;;;;;;3.67;0.95;;;;;;;26.26;37.85;101571.76;1844060;78;21063;-59
2022/04/16 08:12:25;;;;;;;3.95;0.90;;;;;;;26.37;37.74;101572.11;1844098;77;21063;-60
2022/04/16 08:14:54;;;;;;;2.92;1.40;;;;;;;26.28;37.13;101563.52;1844038;78;21505;-59
2022/04/16 08:17:22;;;;;;;2.42;1.10;;;;;;;26.40;36.73;101561.04;1843968;77;21079;-59
2022/04/16 08:19:51;;;;;;;2.60;1.17;;;;;;;26.35;36.40;101555.21;1844160;78;21055;-60
2022/04/16 08:22:21;;;;;;;1.67;0.90;;;;;;;26.45;36.39;101561.47;1844080;78;21132;-60
2022/04/16 08:27:37;;;;;;;1.60;0.80;;;;;;;26.55;35.99;101552.84;1843921;78;21085;-62
2022/04/16 08:30:07;;;;;;;3.35;1.20;;;;;;;26.56;35.94;101550.50;1844063;77;21126;-61
2022/04/16 08:32:37;;;;;;;3.25;1.22;;;;;;;26.70;35.75;101545.16;1844181;78;21063;-61
2022/04/16 08:35:07;;;;;;;2.83;1.10;;;;;;;26.89;35.60;101546.98;1844062;78;21645;-60
2022/04/16 08:37:35;;;;;;;2.62;1.25;;;;;;;27.13;35.48;101537.47;1844320;77;21082;-60
2022/04/16 08:40:06;;;;;;;6.05;1.02;;;;;;;27.18;35.26;101536.53;1844068;77;21129;-61
2022/04/16 08:42:36;;;;;;;2.60;0.93;;;;;;;27.24;34.92;101535.08;1847743;77;21120;-61
2022/04/16 08:45:07;;;;;;;3.10;1.25;;;;;;;27.10;33.50;101527.83;1856621;77;21481;-60
2022/04/16 08:47:38;;;;;;;2.77;1.00;;;;;;;26.90;34.09;101522.98;1856476;77;21066;-60
2022/04/16 08:50:09;;;;;;;3.22;0.90;;;;;;;26.83;34.42;101519.69;1856630;77;21121;-61
2022/04/16 08:52:39;;;;;;;2.17;1.12;;;;;;;26.64;33.39;101528.70;1856722;77;21567;-61
2022/04/16 08:55:11;;;;;;;8.98;1.60;;;;;;;26.49;33.41;101525.07;1856610;77;21141;-60
2022/04/16 08:57:41;;;;;;;3.47;1.10;;;;;;;26.70;33.92;101524.06;1856713;77;21445;-61
2022/04/16 09:00:13;;;;;;;1.72;0.80;;;;;;;27.22;33.64;101521.70;1856735;77;21125;-61
2022/04/16 09:02:56;;;;;;;1.65;0.80;;;;;;;27.42;33.44;101517.08;1856500;77;21128;-60
2022/04/16 09:05:26;;;;;;;3.55;1.20;;;;;;;27.51;33.03;101512.63;1856029;77;21228;-60
2022/04/16 09:07:57;;;;;;;4.75;1.62;;;;;;;27.36;32.52;101504.69;1853296;77;21197;-60
2022/04/16 09:10:27;;;;;;;7.97;1.20;;;;;;;27.33;33.16;101501.29;1853462;77;21098;-60
2022/04/16 09:12:59;;;;;;;2.08;0.90;;;;;;;27.39;33.16;101501.18;1853429;77;21121;-60
2022/04/16 09:15:29;;;;;;;1.80;1.12;;;;;;;26.46;33.10;101503.75;1853443;77;21027;-61
2022/04/16 09:18:06;;;;;;;2.40;1.00;;;;;;;26.08;33.80;101489.33;1853385;77;21565;-60
2022/04/16 09:20:37;;;;;;;5.30;1.30;;;;;;;26.48;33.78;101492.30;1852485;77;21498;-59
2022/04/16 09:23:18;;;;;;;2.87;0.90;;;;;;;26.94;33.09;101491.97;1853341;77;21051;-60
2022/04/16 09:25:47;;;;;;;1.20;0.90;;;;;;;27.08;33.28;101483.04;1853316;77;21502;-60
2022/04/16 09:28:19;;;;;;;2.42;0.78;;;;;;;27.24;33.26;101481.88;1853226;77;21477;-60
2022/04/16 09:30:52;;;;;;;1.70;1.10;;;;;;;27.24;32.99;101477.83;1853279;77;21055;-60
2022/04/16 09:33:21;;;;;;;3.10;1.10;;;;;;;27.35;32.76;101478.13;1853452;77;21055;-60
2022/04/16 09:35:57;;;;;;;5.30;1.22;;;;;;;27.37;32.90;101480.69;1853309;77;21513;-60
2022/04/16 09:38:30;;;;;;;1.62;0.90;;;;;;;27.38;32.67;101485.10;1853443;77;21091;-61
2022/04/16 09:41:00;;;;;;;1.05;0.70;;;;;;;27.48;32.96;101481.34;1853211;77;21137;-60
2022/04/16 09:43:37;;;;;;;2.00;0.90;;;;;;;27.57;32.97;101486.82;1837376;77;21043;-60
2022/04/16 09:46:08;;;;;;;1.98;0.70;;;;;;;27.48;32.27;101475.93;1835168;78;21204;-59
2022/04/16 09:48:37;;;;;;;1.80;0.88;;;;;;;27.38;32.38;101468.88;1833463;78;21064;-60
2022/04/16 09:51:06;;;;;;;1.72;0.82;;;;;;;27.52;32.22;101477.83;1835095;78;21075;-61
2022/04/16 09:53:37;;;;;;;1.62;0.62;;;;;;;27.11;31.13;101471.42;1835062;78;21565;-61
2022/04/16 09:56:08;;;;;;;0.93;0.75;;;;;;;26.46;29.70;101470.00;1835262;78;21573;-59
2022/04/16 09:58:40;;;;;;;1.52;0.80;;;;;;;26.16;31.11;101471.91;1835330;78;21051;-60
2022/04/16 10:01:11;;;;;;;4.47;0.90;;;;;;;26.28;29.97;101469.92;1835327;78;21564;-59
2022/04/16 10:03:41;;;;;;;1.45;0.70;;;;;;;26.13;29.95;101465.44;1835054;78;21084;-59
2022/04/16 10:06:11;;;;;;;1.67;0.50;;;;;;;25.93;29.58;101473.20;1834990;77;21095;-59
2022/04/16 10:08:41;;;;;;;1.70;0.68;;;;;;;25.83;29.03;101466.94;1834983;78;21141;-59
2022/04/16 10:11:19;;;;;;;1.00;0.80;;;;;;;25.30;29.53;101479.77;1835193;78;21087;-59
2022/04/16 10:13:44;;;;;;;0.50;0.50;;;;;;;25.08;29.26;101448.98;1835948;77;21055;-59
2022/04/16 10:16:18;;;;;;;0.80;0.65;;;;;;;24.87;29.80;101462.02;1835338;77;21126;-60
2022/04/16 10:18:49;;;;;;;0.88;0.65;;;;;;;24.98;30.54;101459.73;1835190;78;21130;-59
2022/04/16 10:21:18;;;;;;;0.60;0.60;;;;;;;25.04;30.51;101464.56;1835127;78;21059;-58
2022/04/16 10:23:47;;;;;;;3.47;0.80;;;;;;;24.73;29.75;101463.73;1835139;78;21547;-59
2022/04/16 10:26:17;;;;;;;0.60;0.60;;;;;;;24.35;30.02;101463.86;1835234;78;21173;-59
2022/04/16 10:28:52;;;;;;;0.90;0.70;;;;;;;24.23;30.47;101463.06;1835055;78;21253;-59
2022/04/16 10:31:28;;;;;;;1.17;0.85;;;;;;;24.21;30.30;101459.16;1835159;77;21577;-58
2022/04/16 10:34:08;;;;;;;2.10;1.00;;;;;;;24.03;30.63;101454.00;1835144;78;21608;-59
2022/04/16 10:36:39;;;;;;;1.07;0.82;;;;;;;23.99;30.27;101453.40;1835066;78;21031;-60
2022/04/16 10:39:18;;;;;;;1.90;0.93;;;;;;;23.86;30.65;101437.45;1834997;77;21632;-60
2022/04/16 10:42:05;;;;;;;2.98;0.53;;;;;;;23.89;30.36;101433.16;1837549;77;21229;-58
2022/04/16 10:44:46;;;;;;;0.88;0.70;;;;;;;23.69;30.82;101448.75;1852448;77;21058;-58
2022/04/16 10:47:16;;;;;;;1.40;0.90;;;;;;;23.41;31.32;101437.60;1853406;77;21031;-61
2022/04/16 10:49:45;;;;;;;2.40;0.72;;;;;;;23.46;31.60;101425.98;1853261;77;21087;-60
2022/04/16 10:52:21;;;;;;;2.15;1.17;;;;;;;23.41;31.90;101434.91;1853287;77;21462;-60
2022/04/16 10:54:52;;;;;;;1.10;0.90;;;;;;;23.55;31.70;101431.56;1853381;77;21054;-59
2022/04/16 10:57:23;;;;;;;2.10;0.88;;;;;;;23.25;31.85;101426.41;1853215;77;21170;-60
2022/04/16 10:59:55;;;;;;;1.42;0.45;;;;;;;23.32;32.34;101419.05;1853273;77;21136;-60
2022/04/16 11:02:28;;;;;;;0.82;0.70;;;;;;;23.28;31.95;101428.35;1853344;77;21051;-59
2022/04/16 11:04:56;;;;;;;;;;;;;;;22.96;32.15;101420.68;1856212;77;21528;-60
2022/04/16 11:07:26;;;;;;;1.17;0.78;;;;;;;22.71;32.28;101420.82;1854592;77;20165;-59
2022/04/16 11:09:57;;;;;;;10.82;0.90;;;;;;;22.50;32.32;101412.66;1856264;77;21055;-59
2022/04/16 11:12:26;;;;;;;0.60;0.60;;;;;;;22.24;32.82;101419.16;1856461;77;21142;-60
2022/04/16 11:14:56;;;;;;;2.87;0.70;;;;;;;22.22;33.19;101419.27;1856665;77;21505;-61
2022/04/16 11:17:24;;;;;;;1.42;0.68;;;;;;;22.14;33.35;101421.22;1856585;77;21141;-60
2022/04/16 11:20:04;;;;;;;1.45;0.60;;;;;;;21.91;33.53;101421.66;1856671;77;21075;-57
2022/04/16 11:22:33;;;;;;;1.02;0.50;;;;;;;21.58;33.79;101415.69;1856699;77;21055;-58
2022/04/16 11:25:05;;;;;;;2.30;0.90;;;;;;;21.24;34.04;101417.28;1856538;77;21137;-59
2022/04/16 11:36:02;;;;;;;1.70;0.95;;;;;;;20.53;34.74;101408.95;1856671;77;21058;-60
2022/04/16 11:38:33;;;;;;;1.62;0.82;;;;;;;20.25;34.96;101413.07;1856564;77;21125;-58
2022/04/16 11:41:04;;;;;;;3.05;1.27;;;;;;;19.91;35.10;101411.84;1856659;77;21501;-60
2022/04/16 11:43:34;;;;;;;2.17;0.95;;;;;;;19.72;35.61;101414.03;1853684;76;21059;-61
2022/04/16 11:46:04;;;;;;;5.30;0.72;;;;;;;19.74;35.97;101400.11;1859896;76;21501;-60
2022/04/16 11:48:33;;;;;;;1.27;0.90;;;;;;;19.77;35.91;101410.57;1857140;77;21099;-60
2022/04/16 11:51:02;;;;;;;1.10;0.95;;;;;;;19.66;36.04;101406.79;1833743;77;21136;-63
2022/04/16 11:53:31;;;;;;;2.30;0.78;;;;;;;19.71;36.00;101396.27;1859362;76;21058;-60
2022/04/16 11:55:59;;;;;;;2.05;0.50;;;;;;;19.69;36.14;101395.03;1859285;77;21054;-64
2022/04/16 11:58:29;;;;;;;2.50;1.02;;;;;;;19.70;36.27;101391.87;1869172;76;21108;-61
2022/04/16 12:00:58;;;;;;;2.77;0.60;;;;;;;19.68;36.18;101403.53;1881784;76;21046;-61